createdAt,value
2022-12-08T00:00:18.347Z,-0.94
2022-12-08T00:01:25.102Z,-0.95
2022-12-08T00:02:29.236Z,-0.93
2022-12-08T00:03:34.311Z,-0.92
2022-12-08T00:04:38.499Z,-0.91
2022-12-08T00:05:49.567Z,-0.91
2022-12-08T00:06:53.492Z,-0.91
2022-12-08T00:07:57.510Z,-0.90
2022-12-08T00:09:01.476Z,-0.88
2022-12-08T00:10:25.175Z,-1.14
2022-12-08T00:11:15.626Z,-0.88
2022-12-08T00:12:19.616Z,-0.89
2022-12-08T00:13:23.624Z,-0.90
2022-12-08T00:14:30.109Z,-0.88
2022-12-08T00:15:33.999Z,-0.88
2022-12-08T00:16:38.004Z,-0.87
2022-12-08T00:17:41.899Z,-0.86
2022-12-08T00:18:46.334Z,-0.85
2022-12-08T00:19:50.303Z,-0.84
2022-12-08T00:20:58.900Z,-0.84
2022-12-08T00:22:03.150Z,-0.83
2022-12-08T00:23:07.075Z,-0.83
2022-12-08T00:24:11.168Z,-0.82
2022-12-08T00:25:15.098Z,-0.81
2022-12-08T00:26:19.016Z,-0.81
2022-12-08T00:27:30.090Z,-0.81
2022-12-08T00:28:34.490Z,-0.80
2022-12-08T00:29:38.661Z,-0.81
2022-12-08T00:30:43.529Z,-0.81
2022-12-08T00:31:48.001Z,-0.79
2022-12-08T00:32:51.989Z,-0.78
2022-12-08T00:33:55.958Z,-0.77
2022-12-08T00:35:00.044Z,-0.76
2022-12-08T00:36:12.494Z,-0.76
2022-12-08T00:37:16.347Z,-0.98
2022-12-08T00:38:20.225Z,-0.76
2022-12-08T00:39:24.187Z,-0.76
2022-12-08T00:40:28.388Z,-0.75
2022-12-08T00:41:32.248Z,-0.72
2022-12-08T00:42:36.116Z,-0.72
2022-12-08T00:43:40.057Z,-0.71
2022-12-08T00:44:45.665Z,-0.71
2022-12-08T00:45:49.648Z,-0.70
2022-12-08T00:46:53.812Z,-0.69
2022-12-08T00:47:57.739Z,-0.67
2022-12-08T00:49:02.066Z,-0.67
2022-12-08T00:50:07.192Z,-0.67
2022-12-08T00:51:11.304Z,-0.67
2022-12-08T00:52:15.266Z,-0.65
2022-12-08T00:53:19.314Z,-0.67
2022-12-08T00:54:31.629Z,-0.89
2022-12-08T00:55:35.624Z,-0.64
2022-12-08T00:56:39.902Z,-0.64
2022-12-08T00:57:43.874Z,-0.64
2022-12-08T00:58:47.824Z,-0.63
2022-12-08T00:59:53.521Z,-0.64
2022-12-08T01:00:57.786Z,-0.61
2022-12-08T01:02:05.630Z,-0.62
2022-12-08T01:03:23.157Z,-0.61
2022-12-08T01:04:44.345Z,-0.60
2022-12-08T01:05:49.931Z,-0.59
2022-12-08T01:07:03.199Z,-0.60
2022-12-08T01:08:10.499Z,-0.59
2022-12-08T01:09:17.022Z,-0.60
2022-12-08T01:10:21.134Z,-0.60
2022-12-08T01:11:25.104Z,-0.59
2022-12-08T01:12:30.741Z,-0.59
2022-12-08T01:13:34.869Z,-0.56
2022-12-08T01:14:38.802Z,-0.57
2022-12-08T01:15:42.770Z,-0.56
2022-12-08T01:16:47.316Z,-0.55
2022-12-08T01:17:51.387Z,-0.56
2022-12-08T01:18:56.908Z,-0.56
2022-12-08T01:20:01.465Z,-0.56
2022-12-08T01:21:07.596Z,-0.55
2022-12-08T01:22:11.630Z,-0.54
2022-12-08T01:23:15.836Z,-0.53
2022-12-08T01:24:21.617Z,-0.54
2022-12-08T01:25:25.481Z,-0.54
2022-12-08T01:26:30.026Z,-0.52
2022-12-08T01:27:34.055Z,-0.53
2022-12-08T01:28:38.733Z,-0.53
2022-12-08T01:29:42.684Z,-0.51
2022-12-08T01:30:46.871Z,-0.49
2022-12-08T01:31:50.882Z,-0.50
2022-12-08T01:32:54.836Z,-0.50
2022-12-08T01:33:58.747Z,-0.49
2022-12-08T01:35:02.640Z,-0.49
2022-12-08T01:36:07.032Z,-2.41
2022-12-08T01:37:11.145Z,-2.41
2022-12-08T01:38:15.184Z,-0.48
2022-12-08T01:39:22.975Z,-0.48
2022-12-08T01:40:27.130Z,-0.47
2022-12-08T01:41:33.640Z,-0.46
2022-12-08T01:42:37.626Z,-0.47
2022-12-08T01:43:47.269Z,-0.47
2022-12-08T01:45:00.136Z,-0.47
2022-12-08T01:46:04.115Z,-0.47
2022-12-08T01:47:10.093Z,-0.46
2022-12-08T01:48:17.123Z,-0.46
2022-12-08T01:49:26.906Z,-0.47
2022-12-08T01:50:32.888Z,-0.45
2022-12-08T01:51:39.826Z,-0.45
2022-12-08T01:53:01.919Z,-0.45
2022-12-08T01:54:07.475Z,-0.46
2022-12-08T01:55:17.192Z,-0.47
2022-12-08T01:56:30.356Z,-0.47
2022-12-08T01:57:45.975Z,-0.44
2022-12-08T01:58:52.981Z,-0.46
2022-12-08T02:00:03.297Z,-0.48
2022-12-08T02:01:07.716Z,-0.46
2022-12-08T02:02:13.321Z,-0.47
2022-12-08T02:03:26.040Z,-0.47
2022-12-08T02:04:33.054Z,-0.45
2022-12-08T02:05:40.048Z,-0.43
2022-12-08T02:06:47.299Z,-0.43
2022-12-08T02:07:52.663Z,-0.42
2022-12-08T02:08:57.998Z,-0.42
2022-12-08T02:10:03.487Z,-0.40
2022-12-08T02:11:10.118Z,-0.40
2022-12-08T02:12:14.427Z,-0.40
2022-12-08T02:13:21.175Z,-0.39
2022-12-08T02:14:25.723Z,-0.39
2022-12-08T02:16:02.365Z,-0.37
2022-12-08T02:17:18.248Z,-0.37
2022-12-08T02:18:28.089Z,-0.39
2022-12-08T02:19:51.674Z,-0.38
2022-12-08T02:21:04.903Z,-0.37
2022-12-08T02:22:12.086Z,-0.38
2022-12-08T02:23:37.082Z,-0.37
2022-12-08T02:24:59.070Z,-0.37
2022-12-08T02:26:39.358Z,-0.37
2022-12-08T02:28:06.906Z,-0.37
2022-12-08T02:29:39.017Z,-0.38
2022-12-08T02:31:07.016Z,-0.38
2022-12-08T02:32:26.127Z,-0.38
2022-12-08T02:33:42.070Z,-0.39
2022-12-08T02:34:51.998Z,-0.38
2022-12-08T02:36:13.681Z,-0.38
2022-12-08T02:37:35.535Z,-0.38
2022-12-08T02:38:51.520Z,-0.38
2022-12-08T02:39:58.734Z,-0.38
2022-12-08T02:41:34.653Z,-0.38
2022-12-08T02:42:44.319Z,-0.36
2022-12-08T02:43:52.922Z,-0.35
2022-12-08T02:45:11.954Z,-0.34
2022-12-08T02:46:34.432Z,-0.35
2022-12-08T02:47:39.220Z,-0.31
2022-12-08T02:48:43.977Z,-0.30
2022-12-08T02:49:48.457Z,-0.28
2022-12-08T02:50:52.630Z,-0.26
2022-12-08T02:52:20.752Z,-0.27
2022-12-08T02:53:29.320Z,-0.25
2022-12-08T02:54:34.701Z,-0.25
2022-12-08T02:56:10.200Z,-0.24
2022-12-08T02:57:23.117Z,-0.25
2022-12-08T02:58:46.744Z,-0.24
2022-12-08T03:00:09.107Z,-0.24
2022-12-08T03:01:21.941Z,-0.25
2022-12-08T03:02:29.030Z,-0.24
2022-12-08T03:03:47.365Z,-0.24
2022-12-08T03:05:06.665Z,-0.25
2022-12-08T03:06:30.240Z,-0.25
2022-12-08T03:07:46.229Z,-0.24
2022-12-08T03:09:22.619Z,-0.23
2022-12-08T03:10:48.922Z,-0.23
2022-12-08T03:11:58.763Z,-0.23
2022-12-08T03:13:08.339Z,-0.24
2022-12-08T03:14:15.433Z,-0.23
2022-12-08T03:15:22.460Z,-0.23
2022-12-08T03:16:29.933Z,-0.23
2022-12-08T03:17:35.464Z,-0.24
2022-12-08T03:18:44.159Z,-0.21
2022-12-08T03:19:50.252Z,-0.20
2022-12-08T03:20:55.175Z,-0.20
2022-12-08T03:22:01.604Z,-0.19
2022-12-08T03:23:13.162Z,-0.19
2022-12-08T03:24:19.834Z,-0.19
2022-12-08T03:25:27.300Z,-0.19
2022-12-08T03:26:43.558Z,-0.21
2022-12-08T03:27:48.827Z,-0.40
2022-12-08T03:28:53.246Z,-0.23
2022-12-08T03:30:00.126Z,-0.23
2022-12-08T03:31:07.392Z,-0.23
2022-12-08T03:32:51.005Z,-0.20
2022-12-08T03:33:59.076Z,-0.22
2022-12-08T03:35:08.349Z,-0.23
2022-12-08T03:36:16.421Z,-0.21
2022-12-08T03:37:29.495Z,-0.21
2022-12-08T03:38:45.051Z,-0.20
2022-12-08T03:40:15.505Z,-0.18
2022-12-08T03:41:34.953Z,-0.18
2022-12-08T03:44:02.560Z,-0.17
2022-12-08T03:45:12.894Z,-0.18
2022-12-08T03:46:53.110Z,-0.18
2022-12-08T03:47:57.096Z,-0.17
2022-12-08T03:49:16.913Z,-0.15
2022-12-08T03:50:30.667Z,-0.15
2022-12-08T03:51:54.121Z,-0.15
2022-12-08T03:53:04.537Z,-0.15
2022-12-08T03:54:14.882Z,-0.15
2022-12-08T03:55:21.421Z,-0.18
2022-12-08T03:56:30.254Z,-0.20
2022-12-08T03:58:07.308Z,-0.19
2022-12-08T03:58:57.418Z,-0.23
2022-12-08T04:00:10.550Z,-0.19
2022-12-08T04:01:43.849Z,-0.19
2022-12-08T04:03:16.448Z,-0.23
2022-12-08T04:31:03.380Z,-0.24
2022-12-08T10:30:42.553Z,0.46
2022-12-08T11:29:26.846Z,0.38
2022-12-08T12:07:42.689Z,0.42
2022-12-08T12:09:08.822Z,0.44
2022-12-08T12:10:27.431Z,0.42
2022-12-08T12:11:52.376Z,0.40
2022-12-08T12:13:21.862Z,0.42
2022-12-08T12:14:40.902Z,0.41
2022-12-08T12:16:00.994Z,0.40
2022-12-08T12:17:07.569Z,0.39
2022-12-08T12:18:27.492Z,0.36
2022-12-08T12:19:34.478Z,0.32
2022-12-08T12:20:53.831Z,0.31
2022-12-08T12:35:04.023Z,0.30
2022-12-08T12:39:16.987Z,0.27
2022-12-08T12:40:26.742Z,0.29
2022-12-08T12:41:50.042Z,0.30
2022-12-08T12:43:01.555Z,0.34
2022-12-08T12:44:14.257Z,0.34
2022-12-08T12:45:21.381Z,0.35
2022-12-08T12:46:31.010Z,0.37
2022-12-08T12:47:58.251Z,0.37
2022-12-08T12:49:27.964Z,0.34
2022-12-08T12:50:43.437Z,0.29
2022-12-08T12:51:52.748Z,0.29
2022-12-08T12:52:56.060Z,0.25
2022-12-08T12:54:20.837Z,0.26
2022-12-08T18:54:04.349Z,-1.37
2022-12-08T19:13:57.112Z,-1.39
2022-12-08T19:15:21.308Z,-1.35
2022-12-08T19:19:01.478Z,-1.32
2022-12-08T19:34:40.332Z,-1.43
2022-12-08T19:35:50.719Z,-1.40
2022-12-08T19:37:07.108Z,-1.39
2022-12-08T19:38:12.759Z,-1.39
2022-12-08T19:39:32.841Z,-1.39
2022-12-08T19:40:49.801Z,-1.36
2022-12-08T19:44:45.953Z,-1.34
2022-12-08T20:04:07.402Z,-1.53
2022-12-08T20:05:46.009Z,-1.50
2022-12-08T20:21:03.491Z,-1.67
2022-12-08T20:24:38.917Z,-1.63
2022-12-08T20:25:50.973Z,-1.58
2022-12-08T20:28:18.107Z,-1.60
2022-12-08T20:29:37.611Z,-1.63
2022-12-08T20:31:56.191Z,-1.63
2022-12-08T20:34:53.790Z,-1.62
2022-12-08T20:37:06.886Z,-1.57
2022-12-08T20:38:21.796Z,-1.56
2022-12-08T20:40:50.953Z,-1.60
2022-12-08T20:42:03.893Z,-1.57
2022-12-08T20:43:10.952Z,-1.57
2022-12-08T21:08:10.180Z,-1.62
2022-12-08T21:09:13.525Z,-1.60
2022-12-08T21:10:20.988Z,-1.56
2022-12-08T21:51:59.233Z,-1.54
2022-12-08T21:53:50.792Z,-1.47
2022-12-08T21:55:07.161Z,-1.44
2022-12-08T21:56:11.713Z,-1.41
2022-12-08T21:57:26.662Z,-1.37
2022-12-08T21:58:28.913Z,-1.35
2022-12-08T21:59:53.778Z,-1.34
2022-12-08T22:02:42.537Z,-1.28
2022-12-08T22:03:41.166Z,-1.27
2022-12-08T22:06:19.037Z,-1.25
2022-12-08T22:57:49.462Z,-1.07
2022-12-08T22:58:56.692Z,-1.07
2022-12-08T23:01:09.448Z,-1.07
2022-12-08T23:20:05.577Z,-1.21
2022-12-08T23:21:16.862Z,-1.21
2022-12-08T23:22:24.040Z,-1.19
2022-12-08T23:23:29.802Z,-1.19
2022-12-08T23:24:36.874Z,-1.14
2022-12-08T23:25:46.079Z,-1.14
2022-12-08T23:26:56.524Z,-1.10
2022-12-08T23:28:01.537Z,-1.10
2022-12-08T23:29:09.077Z,-1.07
2022-12-08T23:30:20.020Z,-1.05
2022-12-08T23:31:22.855Z,-1.05
2022-12-08T23:32:31.463Z,-1.03
2022-12-08T23:33:52.461Z,-1.02
2022-12-08T23:54:03.987Z,-0.97
2022-12-08T23:55:18.914Z,-0.93
2022-12-08T23:56:29.910Z,-0.90
2022-12-08T23:57:32.332Z,-0.90
2022-12-08T23:59:58.842Z,-0.90
